Time;durP1;ratioP1;P1;durP2;ratioP2;P2;SDS_P1;SDS_P2;PMS_P1;PMS_P2;Temp;Humidity;BMP_temperature;BMP_pressure;BME280_temperature;BME280_humidity;BME280_pressure;Samples;Min_cycle;Max_cycle;Signal;HPM_P1;HPM_P2
2021/10/12 00:00:16;;;;;;;7.97;3.25;;;9.20;1.00;;;;;;5071139;28;20446;-81
2021/10/12 00:02:43;;;;;;;8.27;2.85;;;9.20;1.00;;;;;;5064265;28;20221;-82
2021/10/12 00:05:11;;;;;;;7.32;2.65;;;9.20;1.00;;;;;;5074421;28;20231;-82
2021/10/12 00:07:38;;;;;;;11.07;2.90;;;9.20;1.00;;;;;;5068809;28;20693;-82
2021/10/12 00:10:07;;;;;;;8.57;2.63;;;9.10;1.00;;;;;;5074226;28;20527;-82
2021/10/12 00:12:33;;;;;;;8.47;2.47;;;9.10;1.00;;;;;;5066933;28;20223;-81
2021/10/12 00:15:00;;;;;;;7.68;2.60;;;9.10;1.00;;;;;;5095600;28;20400;-82
2021/10/12 00:17:28;;;;;;;8.65;2.90;;;9.10;1.00;;;;;;5079771;28;20309;-83
2021/10/12 00:19:55;;;;;;;9.80;3.38;;;9.10;1.00;;;;;;5067295;28;21084;-83
2021/10/12 00:22:22;;;;;;;8.07;2.80;;;9.10;1.00;;;;;;5065911;28;20270;-82
2021/10/12 00:24:49;;;;;;;8.53;2.87;;;9.10;1.00;;;;;;5074309;28;20596;-83
2021/10/12 00:27:16;;;;;;;7.10;2.40;;;9.10;1.00;;;;;;5064537;28;20927;-83
2021/10/12 00:29:43;;;;;;;8.20;3.42;;;9.10;1.00;;;;;;5068117;28;20457;-83
2021/10/12 00:32:10;;;;;;;6.93;3.10;;;9.10;1.00;;;;;;5070754;28;20220;-82
2021/10/12 00:34:38;;;;;;;5.95;2.67;;;9.10;1.00;;;;;;5071041;28;20226;-82
2021/10/12 00:37:04;;;;;;;6.10;3.00;;;9.10;1.00;;;;;;5069525;28;20234;-83
2021/10/12 00:39:31;;;;;;;7.07;3.50;;;9.10;1.00;;;;;;5069289;28;20227;-82
2021/10/12 00:41:58;;;;;;;5.90;2.70;;;9.00;1.00;;;;;;5069844;28;21361;-83
2021/10/12 00:44:26;;;;;;;8.38;2.55;;;9.00;1.00;;;;;;5066026;28;20583;-83
2021/10/12 00:46:53;;;;;;;6.70;2.70;;;9.00;1.00;;;;;;5066306;28;20258;-83
2021/10/12 00:49:20;;;;;;;6.28;3.13;;;9.00;1.00;;;;;;5062790;28;20217;-82
2021/10/12 00:51:48;;;;;;;6.82;2.40;;;9.00;1.00;;;;;;5066177;28;20235;-83
2021/10/12 00:54:15;;;;;;;7.40;3.22;;;9.00;1.00;;;;;;5069688;28;20312;-82
2021/10/12 00:56:42;;;;;;;13.90;2.70;;;9.00;1.00;;;;;;5073506;28;21438;-83
2021/10/12 00:59:09;;;;;;;11.38;3.17;;;8.90;1.00;;;;;;5073951;28;20224;-83
2021/10/12 01:01:38;;;;;;;6.63;2.47;;;9.00;1.00;;;;;;5069152;28;20291;-83
2021/10/12 01:04:05;;;;;;;7.03;2.80;;;8.90;1.00;;;;;;5071088;28;20784;-83
2021/10/12 01:06:31;;;;;;;5.80;2.80;;;8.90;1.00;;;;;;5081152;28;20237;-83
2021/10/12 01:08:59;;;;;;;8.90;2.53;;;8.90;1.00;;;;;;5068519;28;20233;-83
2021/10/12 01:11:27;;;;;;;9.57;2.65;;;8.90;1.00;;;;;;5077756;28;20223;-83
2021/10/12 01:13:54;;;;;;;5.82;2.53;;;8.90;1.00;;;;;;5095532;28;20283;-82
2021/10/12 01:16:21;;;;;;;8.95;3.03;;;8.90;1.00;;;;;;5086663;28;20304;-83
2021/10/12 01:18:58;;;;;;;8.15;3.30;;;8.90;1.00;;;;;;5065879;28;20301;-81
2021/10/12 01:21:27;;;;;;;9.93;2.80;;;8.90;1.00;;;;;;5070216;28;21546;-82
2021/10/12 01:23:54;;;;;;;6.70;2.63;;;8.90;1.00;;;;;;5066016;28;21026;-82
2021/10/12 01:26:21;;;;;;;8.95;4.18;;;8.80;1.00;;;;;;5067850;28;20594;-82
2021/10/12 01:28:48;;;;;;;5.75;2.75;;;8.80;1.00;;;;;;5065598;28;20224;-83
2021/10/12 01:31:19;;;;;;;8.63;2.40;;;8.80;1.00;;;;;;5069734;28;20283;-82
2021/10/12 01:33:46;;;;;;;6.85;2.50;;;8.80;1.00;;;;;;5068271;28;20231;-82
2021/10/12 01:36:13;;;;;;;6.22;2.72;;;8.80;1.00;;;;;;5069317;28;20317;-83
2021/10/12 01:38:41;;;;;;;6.70;2.72;;;8.80;1.00;;;;;;5069813;28;20234;-83
2021/10/12 01:41:07;;;;;;;7.13;2.60;;;8.90;1.00;;;;;;5070955;28;20239;-83
2021/10/12 01:43:34;;;;;;;9.63;2.50;;;8.90;1.00;;;;;;5072246;28;20558;-83
2021/10/12 01:46:01;;;;;;;5.43;2.47;;;8.90;1.00;;;;;;5071990;28;20488;-82
2021/10/12 01:48:28;;;;;;;5.80;2.50;;;9.00;1.00;;;;;;5066891;28;20217;-83
2021/10/12 01:50:55;;;;;;;7.90;2.47;;;9.10;1.00;;;;;;5068035;28;20226;-83
2021/10/12 01:53:22;;;;;;;8.45;2.25;;;9.00;1.00;;;;;;5068875;28;20958;-83
2021/10/12 01:55:50;;;;;;;4.60;2.50;;;9.00;1.00;;;;;;5069311;28;20228;-82
2021/10/12 01:58:16;;;;;;;7.60;2.85;;;9.00;1.00;;;;;;5069179;28;20227;-83
2021/10/12 02:00:43;;;;;;;4.72;2.05;;;8.90;1.00;;;;;;5081796;28;20229;-83
2021/10/12 02:03:09;;;;;;;6.97;2.50;;;8.90;1.00;;;;;;5064953;28;20238;-83
2021/10/12 02:05:36;;;;;;;4.15;2.15;;;8.90;1.00;;;;;;5072395;28;20227;-83
2021/10/12 02:08:03;;;;;;;12.27;2.92;;;8.80;1.00;;;;;;5070536;28;20240;-83
2021/10/12 02:10:29;;;;;;;5.28;2.50;;;8.80;1.00;;;;;;5072156;28;20231;-82
2021/10/12 02:12:57;;;;;;;10.60;3.42;;;8.70;1.00;;;;;;5068606;28;20237;-82
2021/10/12 02:15:24;;;;;;;7.78;2.60;;;8.70;1.00;;;;;;5085723;28;20220;-82
2021/10/12 02:17:51;;;;;;;6.88;2.50;;;8.70;1.00;;;;;;5095936;28;20225;-82
2021/10/12 02:20:18;;;;;;;6.85;3.72;;;8.60;1.00;;;;;;5077816;28;20391;-82
2021/10/12 02:22:45;;;;;;;5.38;2.28;;;8.60;1.00;;;;;;5069366;28;20218;-83
2021/10/12 02:25:12;;;;;;;9.20;2.28;;;8.50;1.00;;;;;;5068821;28;24891;-82
2021/10/12 02:27:39;;;;;;;9.73;2.50;;;8.50;1.00;;;;;;5070501;28;20231;-83
2021/10/12 02:30:09;;;;;;;6.30;2.88;;;8.50;1.00;;;;;;5068614;28;20230;-83
2021/10/12 02:32:36;;;;;;;5.80;2.50;;;8.50;1.00;;;;;;5070997;28;20226;-82
2021/10/12 02:35:03;;;;;;;6.90;2.50;;;8.50;1.00;;;;;;5066919;28;20228;-83
2021/10/12 02:37:29;;;;;;;8.15;3.63;;;8.40;1.00;;;;;;5068562;28;20389;-83
2021/10/12 02:39:56;;;;;;;5.18;3.33;;;8.40;1.00;;;;;;5065463;28;20303;-83
2021/10/12 02:42:23;;;;;;;5.82;2.80;;;8.40;1.00;;;;;;5070305;28;20617;-83
2021/10/12 02:44:50;;;;;;;11.05;3.13;;;8.40;1.00;;;;;;5080758;28;20225;-81
2021/10/12 02:47:18;;;;;;;10.10;4.03;;;8.40;1.00;;;;;;5091823;28;20238;-81
2021/10/12 02:49:45;;;;;;;8.77;4.95;;;8.40;1.00;;;;;;5091295;28;20216;-81
2021/10/12 02:52:12;;;;;;;8.93;4.80;;;8.40;1.00;;;;;;5088462;28;20218;-81
2021/10/12 02:54:38;;;;;;;7.65;3.80;;;8.40;1.00;;;;;;5091278;28;20226;-82
2021/10/12 02:57:05;;;;;;;12.38;5.40;;;8.30;1.00;;;;;;5091404;28;20234;-83
2021/10/12 02:59:31;;;;;;;8.65;3.65;;;8.30;1.00;;;;;;5089350;28;20223;-83
2021/10/12 03:01:58;;;;;;;7.38;3.13;;;8.30;1.00;;;;;;5097486;28;20309;-82
2021/10/12 03:04:26;;;;;;;9.93;3.17;;;8.30;1.00;;;;;;5098663;28;20238;-83
2021/10/12 03:06:53;;;;;;;6.47;2.72;;;8.30;1.00;;;;;;5089319;28;20227;-83
2021/10/12 03:09:19;;;;;;;7.18;3.25;;;8.30;1.00;;;;;;5082272;28;20220;-82
2021/10/12 03:11:46;;;;;;;6.25;3.65;;;8.30;1.00;;;;;;5072957;28;20236;-82
2021/10/12 03:14:13;;;;;;;7.75;2.65;;;8.30;1.00;;;;;;5065063;28;20238;-82
2021/10/12 03:16:39;;;;;;;10.18;4.00;;;8.30;1.00;;;;;;5071430;28;20235;-83
2021/10/12 03:19:06;;;;;;;9.25;3.55;;;8.30;1.00;;;;;;5065444;28;20228;-82
2021/10/12 03:21:36;;;;;;;7.22;2.90;;;8.30;1.00;;;;;;5060780;28;20220;-83
2021/10/12 03:24:03;;;;;;;5.00;3.30;;;8.30;1.00;;;;;;5062874;28;20787;-82
2021/10/12 03:26:30;;;;;;;10.60;4.40;;;8.30;1.00;;;;;;5066815;28;20277;-82
2021/10/12 03:28:57;;;;;;;9.23;3.92;;;8.30;1.00;;;;;;5071754;28;20225;-82
2021/10/12 03:31:24;;;;;;;7.70;2.92;;;8.30;1.00;;;;;;5065686;28;20233;-83
2021/10/12 03:33:51;;;;;;;10.88;3.65;;;8.30;1.00;;;;;;5073899;28;20232;-82
2021/10/12 03:36:17;;;;;;;9.23;3.03;;;8.30;1.00;;;;;;5065592;28;20225;-82
2021/10/12 03:38:46;;;;;;;9.13;3.40;;;8.30;1.00;;;;;;5073610;28;20234;-83
2021/10/12 03:41:13;;;;;;;7.47;3.38;;;8.30;1.00;;;;;;5064421;28;20303;-83
2021/10/12 03:43:39;;;;;;;8.68;3.50;;;8.30;1.00;;;;;;5071344;28;20229;-83
2021/10/12 03:46:06;;;;;;;8.30;3.53;;;8.30;1.00;;;;;;5066855;28;20971;-82
2021/10/12 03:48:32;;;;;;;7.32;3.50;;;8.30;1.00;;;;;;5072997;28;20250;-82
2021/10/12 03:50:59;;;;;;;10.52;3.55;;;8.30;1.00;;;;;;5078702;28;20236;-82
2021/10/12 03:53:26;;;;;;;6.13;4.15;;;8.30;1.00;;;;;;5072779;28;20235;-82
2021/10/12 03:55:54;;;;;;;12.95;3.10;;;8.30;1.00;;;;;;5070282;28;20285;-82
2021/10/12 03:58:20;;;;;;;17.98;11.57;;;8.30;1.00;;;;;;5073333;28;20733;-83
2021/10/12 04:00:48;;;;;;;5.72;3.40;;;8.30;1.00;;;;;;5091018;28;20224;-82
2021/10/12 04:03:15;;;;;;;11.30;3.80;;;8.30;1.00;;;;;;5085525;28;21092;-83
2021/10/12 04:05:41;;;;;;;6.13;3.45;;;8.40;1.00;;;;;;5072294;28;20349;-82
2021/10/12 04:08:09;;;;;;;15.60;6.40;;;8.40;1.00;;;;;;5070659;28;20233;-82
2021/10/12 04:10:36;;;;;;;18.75;4.65;;;8.40;1.00;;;;;;5075392;28;20217;-82
2021/10/12 04:13:05;;;;;;;10.20;4.15;;;8.50;1.00;;;;;;5068316;28;21402;-82
2021/10/12 04:15:32;;;;;;;9.68;3.28;;;8.50;1.00;;;;;;5069879;28;20221;-81
2021/10/12 04:17:59;;;;;;;5.90;2.92;;;8.60;1.00;;;;;;5073799;28;20222;-82
2021/10/12 04:20:27;;;;;;;7.18;3.53;;;8.70;1.00;;;;;;5069476;28;20779;-82
2021/10/12 04:22:56;;;;;;;10.93;4.55;;;8.70;1.00;;;;;;5070550;28;20221;-83
2021/10/12 04:25:23;;;;;;;11.00;4.30;;;8.80;1.00;;;;;;5071971;28;20267;-81
2021/10/12 04:27:51;;;;;;;8.60;3.78;;;8.80;1.00;;;;;;5073690;28;20234;-81
2021/10/12 04:30:19;;;;;;;7.78;5.07;;;8.80;1.00;;;;;;5072229;28;20305;-82
2021/10/12 04:32:45;;;;;;;6.90;3.67;;;8.90;1.00;;;;;;5074205;28;20282;-83
2021/10/12 04:35:12;;;;;;;8.73;4.55;;;8.90;1.00;;;;;;5082644;28;20754;-81
2021/10/12 04:37:39;;;;;;;6.57;3.47;;;9.00;1.00;;;;;;5086823;28;20292;-81
2021/10/12 04:40:07;;;;;;;7.80;4.57;;;9.00;1.00;;;;;;5095723;28;20322;-83
2021/10/12 04:42:35;;;;;;;10.25;4.00;;;9.10;1.00;;;;;;5081153;28;20228;-81
2021/10/12 04:45:02;;;;;;;9.00;4.95;;;9.10;1.00;;;;;;5073197;28;20222;-82
2021/10/12 04:47:30;;;;;;;9.75;4.80;;;9.10;1.00;;;;;;5070658;28;20237;-81
2021/10/12 04:49:56;;;;;;;7.20;4.27;;;9.10;1.00;;;;;;5068375;28;20708;-82
2021/10/12 04:52:23;;;;;;;10.77;5.72;;;9.10;1.00;;;;;;5072464;28;20483;-82
2021/10/12 04:54:50;;;;;;;7.50;4.60;;;9.00;1.00;;;;;;5073241;28;20225;-82
2021/10/12 04:57:16;;;;;;;8.60;5.05;;;9.00;1.00;;;;;;5069289;28;20803;-82
2021/10/12 04:59:43;;;;;;;7.45;4.78;;;9.00;1.00;;;;;;5075064;28;20727;-84
2021/10/12 05:02:10;;;;;;;9.88;4.70;;;8.90;1.00;;;;;;5073307;28;21131;-82
2021/10/12 05:04:37;;;;;;;8.60;5.05;;;8.90;1.00;;;;;;5069203;28;20229;-83
2021/10/12 05:07:04;;;;;;;9.65;5.32;;;8.90;1.00;;;;;;5069300;28;20240;-83
2021/10/12 05:09:31;;;;;;;8.23;5.00;;;8.90;1.00;;;;;;5079271;28;20217;-81
2021/10/12 05:11:57;;;;;;;8.30;5.35;;;8.90;1.00;;;;;;5078125;28;20229;-82
2021/10/12 05:14:24;;;;;;;6.82;4.43;;;8.90;1.00;;;;;;5074885;28;22942;-82
2021/10/12 05:16:51;;;;;;;10.27;4.88;;;8.90;1.00;;;;;;5075983;28;20227;-82
2021/10/12 05:19:18;;;;;;;5.63;4.28;;;8.80;1.00;;;;;;5073578;28;20287;-81
2021/10/12 05:21:46;;;;;;;6.68;4.65;;;8.80;1.00;;;;;;5070727;28;20223;-81
2021/10/12 05:24:13;;;;;;;7.03;4.40;;;8.80;1.00;;;;;;5068641;28;20295;-79
2021/10/12 05:26:41;;;;;;;9.02;4.38;;;8.80;1.00;;;;;;5070918;28;20224;-79
2021/10/12 05:29:10;;;;;;;4.75;3.90;;;8.80;1.00;;;;;;5068697;28;20226;-79
2021/10/12 05:31:37;;;;;;;6.32;4.50;;;8.70;1.00;;;;;;5068085;28;21005;-80
2021/10/12 05:34:03;;;;;;;6.25;4.18;;;8.70;1.00;;;;;;5071416;28;20228;-79
2021/10/12 05:36:30;;;;;;;11.40;8.15;;;8.60;1.00;;;;;;5071579;28;20256;-79
2021/10/12 05:38:58;;;;;;;6.63;3.70;;;8.60;1.00;;;;;;5078808;28;20227;-80
2021/10/12 05:41:28;;;;;;;5.38;3.85;;;8.60;1.00;;;;;;5071173;28;21529;-79
2021/10/12 05:43:55;;;;;;;7.15;3.95;;;8.50;1.00;;;;;;5068136;28;20230;-80
2021/10/12 05:46:21;;;;;;;6.28;3.85;;;8.50;1.00;;;;;;5065079;28;20229;-80
2021/10/12 05:48:48;;;;;;;4.80;3.53;;;8.50;1.00;;;;;;5071992;28;20226;-81
2021/10/12 05:51:17;;;;;;;5.70;3.90;;;8.50;1.00;;;;;;5071008;28;23210;-79
2021/10/12 05:53:46;;;;;;;4.82;3.92;;;8.50;1.00;;;;;;5071042;28;20233;-78
2021/10/12 05:56:17;;;;;;;10.23;5.45;;;8.50;1.00;;;;;;5066494;28;20235;-76
2021/10/12 05:58:44;;;;;;;7.38;3.50;;;8.50;1.00;;;;;;5060520;28;20231;-77
2021/10/12 06:01:11;;;;;;;6.72;4.22;;;8.50;1.00;;;;;;5063551;28;20276;-78
2021/10/12 06:03:38;;;;;;;10.70;3.53;;;8.40;1.00;;;;;;5054040;28;20271;-80
2021/10/12 06:06:05;;;;;;;8.13;3.63;;;8.50;1.00;;;;;;5064925;28;20710;-77
2021/10/12 06:08:33;;;;;;;9.13;4.30;;;8.60;1.00;;;;;;5056313;28;20367;-78
2021/10/12 06:11:01;;;;;;;6.95;3.90;;;8.60;1.00;;;;;;5067832;28;20338;-78
2021/10/12 06:13:29;;;;;;;5.13;3.42;;;8.60;1.00;;;;;;5061578;28;20821;-78
2021/10/12 06:15:56;;;;;;;7.03;4.30;;;8.70;1.00;;;;;;5066297;28;20303;-78
2021/10/12 06:18:23;;;;;;;5.40;4.20;;;8.70;1.00;;;;;;5068283;28;20225;-79
2021/10/12 06:20:51;;;;;;;6.47;4.80;;;8.70;1.00;;;;;;5063196;28;20249;-79
2021/10/12 06:23:18;;;;;;;8.68;5.82;;;8.80;1.00;;;;;;5060677;28;20448;-79
2021/10/12 06:25:45;;;;;;;7.30;4.50;;;8.90;1.00;;;;;;5064932;28;20218;-80
2021/10/12 06:28:14;;;;;;;7.88;4.93;;;8.90;1.00;;;;;;5060243;28;20470;-79
2021/10/12 06:30:42;;;;;;;6.00;4.75;;;8.90;1.00;;;;;;5065165;28;20220;-79
2021/10/12 06:33:09;;;;;;;8.43;4.57;;;8.90;1.00;;;;;;5061656;28;20219;-79
2021/10/12 06:35:36;;;;;;;6.35;5.75;;;8.90;1.00;;;;;;5068711;28;20230;-78
2021/10/12 06:38:04;;;;;;;10.60;9.60;;;9.00;1.00;;;;;;5071066;28;20231;-78
2021/10/12 06:40:31;;;;;;;7.85;6.10;;;9.10;1.00;;;;;;5072368;28;20311;-79
2021/10/12 06:42:59;;;;;;;8.95;5.65;;;9.10;1.00;;;;;;5064326;28;20221;-79
2021/10/12 06:45:26;;;;;;;7.97;5.30;;;9.10;1.00;;;;;;5063692;28;20229;-78
2021/10/12 06:47:55;;;;;;;9.30;6.82;;;9.20;1.00;;;;;;5060248;28;20244;-79
2021/10/12 06:50:23;;;;;;;9.25;6.95;;;9.20;1.00;;;;;;5064601;28;20218;-78
2021/10/12 06:52:50;;;;;;;8.77;6.35;;;9.30;1.00;;;;;;5060330;28;20220;-79
2021/10/12 06:55:18;;;;;;;7.95;5.93;;;9.40;1.00;;;;;;5054791;28;20232;-78
2021/10/12 06:57:46;;;;;;;7.25;6.30;;;9.40;1.00;;;;;;5055238;28;20320;-76
2021/10/12 07:00:14;;;;;;;8.23;6.90;;;9.60;1.00;;;;;;5054004;28;20335;-77
2021/10/12 07:02:41;;;;;;;6.95;6.13;;;9.70;1.00;;;;;;5059281;28;20219;-78
2021/10/12 07:05:10;;;;;;;7.13;5.80;;;9.70;1.00;;;;;;5056758;28;20233;-78
2021/10/12 07:07:37;;;;;;;8.90;5.67;;;9.80;1.00;;;;;;5061815;28;20473;-78
2021/10/12 07:10:05;;;;;;;9.40;6.20;;;9.80;1.00;;;;;;5054451;28;20457;-78
2021/10/12 07:12:32;;;;;;;7.40;5.85;;;9.80;1.00;;;;;;5056578;28;20435;-77
2021/10/12 07:14:58;;;;;;;10.60;6.87;;;9.70;1.00;;;;;;5056898;28;20243;-77
2021/10/12 07:17:25;;;;;;;6.43;5.23;;;9.80;1.00;;;;;;5059477;28;20459;-77
2021/10/12 07:19:52;;;;;;;5.90;4.83;;;9.90;1.00;;;;;;5058814;28;20509;-77
2021/10/12 07:22:22;;;;;;;6.65;5.30;;;9.80;1.00;;;;;;5061354;28;20515;-77
2021/10/12 07:24:49;;;;;;;7.00;4.55;;;9.90;1.00;;;;;;5055690;28;20228;-77
2021/10/12 07:27:15;;;;;;;4.80;3.90;;;10.00;1.00;;;;;;5049277;28;22019;-76
2021/10/12 07:29:42;;;;;;;3.70;3.30;;;10.10;1.00;;;;;;5053151;28;20464;-76
2021/10/12 07:32:09;;;;;;;6.47;3.27;;;10.00;1.00;;;;;;5048751;28;20936;-76
2021/10/12 07:34:35;;;;;;;5.73;3.47;;;10.00;1.00;;;;;;5050986;28;21140;-79
2021/10/12 07:37:02;;;;;;;6.03;3.27;;;10.00;1.00;;;;;;5048424;28;21242;-78
2021/10/12 07:39:30;;;;;;;4.57;2.77;;;10.10;1.00;;;;;;5051942;28;20471;-78
2021/10/12 07:41:57;;;;;;;5.18;2.90;;;10.10;1.00;;;;;;5056798;28;20460;-77
2021/10/12 07:44:23;;;;;;;4.70;3.00;;;10.10;1.00;;;;;;5055677;28;20232;-78
2021/10/12 07:46:50;;;;;;;4.07;3.17;;;10.10;1.00;;;;;;5059399;28;20423;-77
2021/10/12 07:49:17;;;;;;;4.03;2.33;;;10.10;1.00;;;;;;5058464;28;24972;-76
2021/10/12 07:51:43;;;;;;;6.73;5.00;;;10.10;1.00;;;;;;5051029;28;20822;-77
2021/10/12 07:54:14;;;;;;;3.97;2.83;;;10.20;1.00;;;;;;5055189;28;20455;-77
2021/10/12 07:56:42;;;;;;;5.70;2.37;;;10.30;1.00;;;;;;5046850;28;20453;-78
2021/10/12 07:59:11;;;;;;;3.90;2.45;;;10.30;1.00;;;;;;5048463;28;20456;-78
2021/10/12 08:01:38;;;;;;;4.50;2.60;;;10.40;1.00;;;;;;5048444;28;20237;-77
2021/10/12 08:04:05;;;;;;;4.40;2.90;;;10.50;1.00;;;;;;5047323;28;20229;-78
2021/10/12 08:06:32;;;;;;;4.60;2.60;;;10.60;1.00;;;;;;5047270;28;20450;-77
2021/10/12 08:08:59;;;;;;;5.30;2.30;;;10.80;1.00;;;;;;5051803;28;21418;-78
2021/10/12 08:11:27;;;;;;;3.43;2.50;;;10.80;1.00;;;;;;5046855;28;20447;-76
2021/10/12 08:13:59;;;;;;;6.80;5.40;;;10.60;1.00;;;;;;5055016;28;20452;-78
2021/10/12 08:16:29;;;;;;;10.80;6.97;;;10.60;1.00;;;;;;5051197;28;21393;-76
2021/10/12 08:18:58;;;;;;;4.70;2.60;;;10.60;1.00;;;;;;5049322;28;20727;-77
2021/10/12 08:21:25;;;;;;;4.73;2.60;;;10.60;1.00;;;;;;5059890;28;20447;-76
2021/10/12 08:23:53;;;;;;;5.07;2.30;;;10.50;1.00;;;;;;5053360;28;21108;-77
2021/10/12 08:26:20;;;;;;;5.13;2.40;;;10.60;1.00;;;;;;5055074;28;20442;-76
2021/10/12 08:28:47;;;;;;;3.40;2.13;;;10.60;1.00;;;;;;5049743;28;21400;-77
2021/10/12 08:31:17;;;;;;;4.60;2.90;;;10.60;1.00;;;;;;5058512;28;21582;-77
2021/10/12 08:33:44;;;;;;;5.17;2.70;;;10.60;1.00;;;;;;5063940;28;20439;-77
2021/10/12 08:36:11;;;;;;;6.47;3.00;;;10.60;1.00;;;;;;5054436;28;20480;-77
2021/10/12 08:38:38;;;;;;;4.73;2.53;;;10.60;1.00;;;;;;5056767;28;20529;-77
2021/10/12 08:41:06;;;;;;;3.17;2.77;;;10.70;1.00;;;;;;5057846;28;20431;-78
2021/10/12 08:43:34;;;;;;;4.53;2.50;;;10.80;1.00;;;;;;5059618;28;21562;-77
2021/10/12 08:46:02;;;;;;;4.17;2.67;;;10.90;1.00;;;;;;5055302;28;20439;-77
2021/10/12 08:48:31;;;;;;;3.97;2.40;;;11.00;1.00;;;;;;5048702;28;20490;-77
2021/10/12 08:50:59;;;;;;;5.37;2.90;;;10.90;1.00;;;;;;5051864;28;20528;-77
2021/10/12 08:53:27;;;;;;;3.07;2.17;;;10.80;1.00;;;;;;5048568;28;21046;-77
2021/10/12 08:55:54;;;;;;;3.60;2.07;;;10.90;1.00;;;;;;5050218;28;20432;-76
2021/10/12 08:58:20;;;;;;;5.47;3.23;;;11.10;1.00;;;;;;5053481;28;20450;-78
2021/10/12 09:00:47;;;;;;;5.00;2.40;;;11.40;1.00;;;;;;5054606;28;21038;-78
2021/10/12 09:03:18;;;;;;;6.13;3.20;;;11.90;1.00;;;;;;5057731;28;20462;-78
2021/10/12 09:05:54;;;;;;;6.70;2.93;;;12.00;1.00;;;;;;5060356;28;20466;-80
2021/10/12 09:08:26;;;;;;;4.80;2.40;;;12.40;1.00;;;;;;5052835;28;20454;-81
2021/10/12 09:10:53;;;;;;;4.93;2.97;;;12.90;1.00;;;;;;5055314;28;20550;-81
2021/10/12 09:13:20;;;;;;;4.03;2.90;;;12.50;1.00;;;;;;5054656;28;25351;-78
2021/10/12 09:16:07;;;;;;;5.20;3.07;;;11.80;1.00;;;;;;5059151;28;20487;-81
2021/10/12 09:18:55;;;;;;;5.83;2.83;;;11.20;1.00;;;;;;5055206;28;20450;-80
2021/10/12 09:21:27;;;;;;;8.03;3.67;;;10.80;1.00;;;;;;5060401;28;20434;-80
2021/10/12 09:24:02;;;;;;;6.10;4.53;;;10.60;1.00;;;;;;5058267;28;20446;-81
2021/10/12 09:26:34;;;;;;;6.13;5.03;;;10.40;1.00;;;;;;5060620;28;20414;-80
2021/10/12 09:29:03;;;;;;;5.60;4.50;;;10.30;1.00;;;;;;5059581;28;20478;-81
2021/10/12 09:31:35;;;;;;;6.33;4.30;;;10.40;1.00;;;;;;5057852;28;20428;-80
2021/10/12 09:34:04;;;;;;;6.70;3.60;;;10.40;1.00;;;;;;5061205;28;20460;-80
2021/10/12 09:36:35;;;;;;;9.80;3.30;;;10.60;1.00;;;;;;5052992;28;20423;-80
2021/10/12 09:39:03;;;;;;;4.80;2.60;;;10.90;1.00;;;;;;5059059;28;21077;-80
2021/10/12 09:41:30;;;;;;;5.57;2.30;;;11.00;1.00;;;;;;5049163;28;20456;-81
2021/10/12 09:44:11;;;;;;;3.17;2.10;;;11.10;1.00;;;;;;5054446;28;20581;-80
2021/10/12 09:46:40;;;;;;;5.53;2.17;;;11.30;1.00;;;;;;5048810;28;20419;-80
2021/10/12 09:49:12;;;;;;;5.00;2.10;;;11.60;1.00;;;;;;5064684;28;20479;-83
2021/10/12 09:51:56;;;;;;;5.17;2.67;;;11.90;1.00;;;;;;5067784;28;22850;-80
2021/10/12 09:54:24;;;;;;;4.93;2.23;;;12.30;1.00;;;;;;5068791;28;20451;-80
2021/10/12 09:56:51;;;;;;;5.00;2.40;;;12.60;1.00;;;;;;5074161;28;20408;-81
2021/10/12 09:59:18;;;;;;;4.03;2.20;;;13.10;1.00;;;;;;5064027;28;20461;-80
2021/10/12 10:01:47;;;;;;;2.67;1.47;;;14.00;1.00;;;;;;5058284;28;20454;-80
2021/10/12 10:04:16;;;;;;;4.47;1.73;;;14.90;1.00;;;;;;5051352;28;20456;-79
2021/10/12 10:06:46;;;;;;;3.90;1.80;;;15.50;1.00;;;;;;5057160;28;20456;-80
2021/10/12 10:09:14;;;;;;;5.03;1.40;;;15.80;1.00;;;;;;5067747;28;20550;-81
2021/10/12 10:11:42;;;;;;;3.20;2.30;;;15.60;1.00;;;;;;5058487;28;20446;-81
2021/10/12 10:14:10;;;;;;;3.20;1.97;;;15.50;1.00;;;;;;5056094;28;20537;-80
2021/10/12 10:16:38;;;;;;;3.93;1.53;;;15.30;1.00;;;;;;5053942;28;21245;-80
2021/10/12 10:19:07;;;;;;;3.50;1.90;;;14.90;1.00;;;;;;5060838;28;21500;-80
2021/10/12 10:21:38;;;;;;;6.17;2.70;;;14.40;1.00;;;;;;5059812;28;20827;-80
2021/10/12 10:24:10;;;;;;;4.70;1.43;;;14.30;1.00;;;;;;5058930;28;20455;-80
2021/10/12 10:26:39;;;;;;;3.70;1.27;;;14.40;1.00;;;;;;5053595;28;20463;-80
2021/10/12 10:29:24;;;;;;;2.53;1.40;;;14.60;1.00;;;;;;5062834;28;20470;-80
2021/10/12 10:31:54;;;;;;;3.33;1.43;;;14.50;1.00;;;;;;5065583;28;20415;-80
2021/10/12 10:34:35;;;;;;;3.17;1.27;;;14.20;1.00;;;;;;5064355;28;21281;-80
2021/10/12 10:37:28;;;;;;;3.17;1.40;;;14.10;1.00;;;;;;5050304;28;20454;-80
2021/10/12 10:39:58;;;;;;;2.87;1.60;;;14.40;1.00;;;;;;5059208;28;20994;-80
2021/10/12 10:43:04;;;;;;;3.10;1.13;;;15.30;1.00;;;;;;5055376;28;20532;-79
2021/10/12 10:45:49;;;;;;;3.20;1.70;;;17.10;1.00;;;;;;5048395;28;20474;-80
2021/10/12 10:48:18;;;;;;;2.77;1.90;;;18.20;1.00;;;;;;5056252;28;20464;-77
2021/10/12 10:50:44;;;;;;;2.23;1.30;;;18.10;1.00;;;;;;5047093;28;20532;-78
2021/10/12 10:53:12;;;;;;;4.77;1.90;;;17.30;1.00;;;;;;5047107;28;20446;-79
2021/10/12 10:55:44;;;;;;;3.60;1.30;;;16.10;1.00;;;;;;5048601;28;24324;-79
2021/10/12 10:58:16;;;;;;;5.20;1.30;;;15.00;1.00;;;;;;5045606;28;20528;-78
2021/10/12 11:00:47;;;;;;;6.20;2.03;;;14.20;1.00;;;;;;5050336;28;21257;-78
2021/10/12 11:03:36;;;;;;;2.10;0.90;;;13.90;1.00;;;;;;5049596;28;20753;-78
2021/10/12 11:06:05;;;;;;;3.50;1.93;;;14.00;1.00;;;;;;5054439;28;20443;-79
2021/10/12 11:08:33;;;;;;;3.57;1.53;;;14.40;1.00;;;;;;5051551;28;21028;-78
2021/10/12 11:11:02;;;;;;;3.60;1.40;;;16.40;1.00;;;;;;5051573;28;20573;-78
2021/10/12 11:13:34;;;;;;;2.77;1.20;;;18.70;1.00;;;;;;5048468;28;20470;-79
2021/10/12 11:16:02;;;;;;;3.43;1.70;;;19.60;1.00;;;;;;5046163;28;20471;-78
2021/10/12 11:18:29;;;;;;;7.00;1.97;;;20.80;1.00;;;;;;5052742;28;20462;-78
2021/10/12 11:20:57;;;;;;;2.17;1.37;;;21.80;1.00;;;;;;5049973;28;20461;-77
2021/10/12 11:23:30;;;;;;;2.33;1.13;;;21.50;1.00;;;;;;5047960;28;20568;-78
2021/10/12 11:25:59;;;;;;;3.37;1.10;;;21.50;1.00;;;;;;5046090;28;21044;-78
2021/10/12 11:28:29;;;;;;;3.93;1.33;;;20.70;1.00;;;;;;5045335;28;20456;-78
2021/10/12 11:31:00;;;;;;;2.27;1.03;;;20.70;1.00;;;;;;5052057;28;20883;-77
2021/10/12 11:33:31;;;;;;;4.30;1.70;;;21.40;1.00;;;;;;5051206;28;20421;-76
2021/10/12 11:36:00;;;;;;;3.80;1.60;;;20.50;1.00;;;;;;5047902;28;21824;-78
2021/10/12 11:38:31;;;;;;;3.53;1.03;;;19.00;1.00;;;;;;5051493;28;20456;-78
2021/10/12 11:40:59;;;;;;;3.60;1.77;;;18.30;1.00;;;;;;5049120;28;21176;-77
2021/10/12 11:43:32;;;;;;;2.07;0.97;;;18.50;1.00;;;;;;5052687;28;21018;-80
2021/10/12 11:46:00;;;;;;;5.50;1.57;;;18.00;1.00;;;;;;5050758;28;20462;-77
2021/10/12 11:48:27;;;;;;;2.77;1.10;;;17.10;1.00;;;;;;5051535;28;20970;-76
2021/10/12 11:50:54;;;;;;;3.50;1.60;;;16.60;1.00;;;;;;5050533;28;20499;-78
2021/10/12 11:53:28;;;;;;;3.03;1.20;;;16.90;1.00;;;;;;5044925;28;20456;-77
2021/10/12 11:56:06;;;;;;;1.97;1.10;;;17.90;1.00;;;;;;5045785;28;20461;-78
2021/10/12 11:58:34;;;;;;;5.50;1.73;;;19.50;1.00;;;;;;5049730;28;20514;-78
2021/10/12 12:01:01;;;;;;;4.27;2.20;;;20.40;1.00;;;;;;5051346;28;21635;-78
2021/10/12 12:03:28;;;;;;;2.57;1.50;;;20.80;1.00;;;;;;5048432;28;20470;-79
2021/10/12 12:05:57;;;;;;;2.13;1.30;;;21.50;1.00;;;;;;5051698;28;21316;-79
2021/10/12 12:08:26;;;;;;;4.13;1.60;;;22.50;1.00;;;;;;5045033;28;20465;-79
2021/10/12 12:10:54;;;;;;;2.87;1.83;;;24.00;1.00;;;;;;5047172;28;20464;-79
2021/10/12 12:13:21;;;;;;;2.20;1.10;;;25.80;1.00;;;;;;5049693;28;20454;-79
2021/10/12 12:15:50;;;;;;;4.17;1.50;;;26.90;1.00;;;;;;5051952;28;21068;-79
2021/10/12 12:18:18;;;;;;;6.13;1.73;;;27.30;1.00;;;;;;5049815;28;20467;-79
2021/10/12 12:20:55;;;;;;;2.63;1.33;;;26.10;1.00;;;;;;5064677;28;20474;-79
2021/10/12 12:23:33;;;;;;;1.67;0.97;;;25.30;1.00;;;;;;5061308;28;20556;-77
2021/10/12 12:26:00;;;;;;;1.80;1.13;;;24.40;1.00;;;;;;5054868;28;20431;-79
2021/10/12 12:28:27;;;;;;;3.53;1.17;;;23.30;1.00;;;;;;5046871;28;21623;-78
2021/10/12 12:30:55;;;;;;;2.77;0.90;;;20.90;1.00;;;;;;5053155;28;20648;-78
2021/10/12 12:33:22;;;;;;;2.10;1.13;;;19.20;1.00;;;;;;5056212;28;20459;-77
2021/10/12 12:35:50;;;;;;;2.50;1.10;;;18.50;1.00;;;;;;5055507;28;20466;-77
2021/10/12 12:38:25;;;;;;;2.83;1.03;;;18.40;1.00;;;;;;5056311;28;20462;-77
2021/10/12 12:40:52;;;;;;;2.73;1.33;;;18.10;1.00;;;;;;5058116;28;20461;-77
2021/10/12 12:43:21;;;;;;;3.30;1.00;;;18.30;1.00;;;;;;5065030;28;20462;-76
2021/10/12 12:45:47;;;;;;;2.70;1.37;;;18.20;1.00;;;;;;5057383;28;21068;-77
2021/10/12 12:48:25;;;;;;;4.30;1.40;;;17.60;1.00;;;;;;5055734;28;20459;-77
2021/10/12 12:51:01;;;;;;;2.07;1.30;;;17.20;1.00;;;;;;5060616;28;20630;-78
2021/10/12 12:53:41;;;;;;;4.67;1.77;;;16.80;1.00;;;;;;5056139;28;20459;-77
2021/10/12 12:56:10;;;;;;;5.87;1.63;;;16.30;1.00;;;;;;5059615;28;20503;-76
2021/10/12 12:58:38;;;;;;;3.50;1.30;;;15.90;1.00;;;;;;5053046;28;20528;-76
2021/10/12 13:01:06;;;;;;;2.60;1.33;;;15.50;1.00;;;;;;5063143;28;21264;-77
2021/10/12 13:03:34;;;;;;;3.53;1.30;;;15.70;1.00;;;;;;5054909;28;20460;-74
2021/10/12 13:06:01;;;;;;;2.10;1.40;;;16.00;1.00;;;;;;5059981;28;20981;-77
2021/10/12 13:08:28;;;;;;;6.60;1.50;;;16.10;1.00;;;;;;5056755;28;21186;-77